Time;durP1;ratioP1;P1;durP2;ratioP2;P2;SDS_P1;SDS_P2;PMS_P1;PMS_P2;Temp;Humidity;BMP_temperature;BMP_pressure;BME280_temperature;BME280_humidity;BME280_pressure;Samples;Min_cycle;Max_cycle;Signal;HPM_P1;HPM_P2
2022/06/30 00:00:44;;;;;;;8.97;8.20;;;18.30;99.90;;;;;;4919061;29;20204;-77
2022/06/30 00:03:11;;;;;;;8.73;7.83;;;18.40;99.90;;;;;;4919490;29;20216;-78
2022/06/30 00:05:38;;;;;;;8.90;8.10;;;18.30;99.90;;;;;;4903660;29;20208;-78
2022/06/30 00:08:07;;;;;;;12.47;11.57;;;18.30;99.90;;;;;;4902969;29;20212;-77
2022/06/30 00:10:34;;;;;;;12.50;11.40;;;18.30;99.90;;;;;;4920098;29;20207;-78
2022/06/30 00:13:00;;;;;;;12.07;11.17;;;18.30;99.90;;;;;;4919656;29;20652;-78
2022/06/30 00:15:27;;;;;;;12.43;11.53;;;18.20;99.90;;;;;;4902311;29;20644;-78
2022/06/30 00:17:54;;;;;;;6.77;6.17;;;18.30;99.90;;;;;;4919312;29;20204;-78
2022/06/30 00:20:21;;;;;;;8.53;7.13;;;18.20;99.90;;;;;;4919763;29;20230;-78
2022/06/30 00:22:48;;;;;;;9.73;8.93;;;18.20;99.90;;;;;;4903007;29;20227;-78
2022/06/30 00:25:17;;;;;;;9.47;8.77;;;18.10;99.90;;;;;;4919992;29;20626;-78
2022/06/30 00:27:45;;;;;;;7.53;6.80;;;18.10;99.90;;;;;;4920078;29;20291;-78
2022/06/30 00:30:12;;;;;;;9.23;8.33;;;18.20;99.90;;;;;;4899540;29;20197;-77
2022/06/30 00:32:39;;;;;;;7.47;6.77;;;18.10;99.90;;;;;;4919395;29;20239;-78
2022/06/30 00:35:06;;;;;;;10.47;9.67;;;18.10;99.90;;;;;;4899697;29;20478;-78
2022/06/30 00:37:33;;;;;;;7.90;7.20;;;18.00;99.90;;;;;;4919567;29;20200;-77
2022/06/30 00:40:00;;;;;;;6.90;6.30;;;18.00;99.90;;;;;;4918851;29;20583;-78
2022/06/30 00:42:30;;;;;;;9.40;8.60;;;18.00;99.90;;;;;;4919366;29;20228;-77
2022/06/30 00:44:57;;;;;;;8.20;7.50;;;17.90;99.90;;;;;;4896243;29;20570;-77
2022/06/30 00:47:24;;;;;;;10.10;9.30;;;17.90;99.90;;;;;;4902516;29;20243;-77
2022/06/30 00:49:51;;;;;;;9.23;8.53;;;17.80;99.90;;;;;;4919564;29;20211;-77
2022/06/30 00:52:21;;;;;;;9.23;8.33;;;17.80;99.90;;;;;;4902663;29;20234;-78
2022/06/30 00:54:49;;;;;;;12.73;11.73;;;17.80;99.90;;;;;;4902325;29;20263;-78
2022/06/30 00:57:18;;;;;;;13.63;12.63;;;17.70;99.90;;;;;;4902557;29;20301;-78
2022/06/30 00:59:48;;;;;;;12.90;12.00;;;17.70;99.90;;;;;;4919289;29;20212;-76
2022/06/30 01:02:17;;;;;;;13.10;12.20;;;17.60;99.90;;;;;;4920345;29;20223;-78
2022/06/30 01:04:46;;;;;;;13.23;12.13;;;17.60;99.90;;;;;;4922500;29;20210;-78
2022/06/30 01:07:15;;;;;;;13.90;12.90;;;17.50;99.90;;;;;;4922946;29;20195;-78
2022/06/30 01:12:44;;;;;;;13.20;12.20;;;17.50;99.90;;;;;;4917645;29;20723;-76
2022/06/30 01:15:15;;;;;;;13.37;12.37;;;17.50;99.90;;;;;;4901667;29;20627;-78
2022/06/30 01:17:42;;;;;;;13.00;12.10;;;17.40;99.90;;;;;;4906095;29;20626;-78
2022/06/30 01:20:10;;;;;;;12.40;11.50;;;17.40;99.90;;;;;;4901113;29;20204;-78
2022/06/30 01:22:38;;;;;;;12.47;11.47;;;17.40;99.90;;;;;;4905022;29;20294;-78
2022/06/30 01:25:08;;;;;;;12.60;11.70;;;17.40;99.90;;;;;;4921910;29;20612;-78
2022/06/30 01:27:34;;;;;;;13.73;12.83;;;17.30;99.90;;;;;;4922680;29;20211;-78
2022/06/30 01:30:01;;;;;;;13.50;12.50;;;17.30;99.90;;;;;;4922527;29;20208;-76
2022/06/30 01:32:29;;;;;;;13.40;12.40;;;17.30;99.90;;;;;;4905295;29;20220;-78
2022/06/30 01:34:56;;;;;;;13.60;12.70;;;17.30;99.90;;;;;;4921721;29;20715;-78
2022/06/30 01:37:23;;;;;;;13.30;12.30;;;17.30;99.90;;;;;;4905614;29;20662;-76
2022/06/30 01:39:52;;;;;;;13.20;12.30;;;17.30;99.90;;;;;;4922133;29;20263;-78
2022/06/30 01:42:20;;;;;;;13.70;12.63;;;17.20;99.90;;;;;;4904794;29;20223;-78
2022/06/30 01:44:47;;;;;;;13.87;12.67;;;17.20;99.90;;;;;;4921619;29;20666;-78
2022/06/30 01:47:14;;;;;;;13.87;12.77;;;17.20;99.90;;;;;;4904716;29;20218;-78
2022/06/30 01:49:40;;;;;;;13.87;12.73;;;17.10;99.90;;;;;;4905270;29;20210;-78
2022/06/30 01:52:08;;;;;;;13.70;12.80;;;17.10;99.90;;;;;;4921572;29;20227;-78
2022/06/30 01:54:35;;;;;;;13.43;12.40;;;17.00;99.90;;;;;;4921247;29;20283;-78
2022/06/30 01:57:04;;;;;;;14.50;13.40;;;17.00;99.90;;;;;;4903740;29;20217;-78
2022/06/30 01:59:30;;;;;;;14.30;13.20;;;17.00;99.90;;;;;;4905153;29;20224;-77
2022/06/30 02:01:57;;;;;;;13.33;12.33;;;17.00;99.90;;;;;;4922131;29;20230;-76
2022/06/30 02:07:05;;;;;;;13.70;12.70;;;17.00;99.90;;;;;;4908959;29;20708;-78
2022/06/30 02:09:32;;;;;;;13.80;12.80;;;17.00;99.90;;;;;;4921795;29;20578;-77
2022/06/30 02:14:41;;;;;;;12.87;11.97;;;17.00;99.90;;;;;;4920817;29;20245;-77
2022/06/30 02:17:08;;;;;;;13.67;12.67;;;16.90;99.90;;;;;;4921289;29;20223;-77
2022/06/30 02:19:35;;;;;;;14.00;13.00;;;17.00;99.90;;;;;;4904396;29;20259;-78
2022/06/30 02:22:01;;;;;;;14.53;13.43;;;17.00;99.90;;;;;;4904564;29;20216;-77
2022/06/30 02:24:28;;;;;;;13.50;12.60;;;17.00;99.90;;;;;;4921387;29;20244;-77
2022/06/30 02:26:55;;;;;;;13.03;12.13;;;17.00;99.90;;;;;;4920941;29;20207;-78
2022/06/30 02:29:22;;;;;;;13.57;12.60;;;17.10;99.90;;;;;;4922047;29;20363;-78
2022/06/30 02:31:50;;;;;;;14.37;13.37;;;17.00;99.90;;;;;;4906978;29;20523;-78
2022/06/30 02:34:17;;;;;;;13.53;12.53;;;17.10;99.90;;;;;;4920516;29;20547;-77
2022/06/30 02:36:44;;;;;;;13.90;12.93;;;17.10;99.90;;;;;;4914293;29;20265;-78
2022/06/30 02:39:11;;;;;;;13.07;12.17;;;17.00;99.90;;;;;;4913058;29;20283;-77
2022/06/30 02:41:37;;;;;;;14.03;13.03;;;17.00;99.90;;;;;;4921393;29;20204;-80
2022/06/30 02:44:04;;;;;;;13.20;12.20;;;17.00;99.90;;;;;;4918428;29;20212;-78
2022/06/30 02:46:31;;;;;;;14.27;13.27;;;17.00;99.90;;;;;;4901875;29;20249;-78
2022/06/30 02:48:59;;;;;;;14.97;13.77;;;16.90;99.90;;;;;;4918873;29;20716;-78
2022/06/30 02:51:26;;;;;;;13.80;12.80;;;16.90;99.90;;;;;;4902959;29;20207;-79
2022/06/30 02:53:53;;;;;;;13.80;12.90;;;16.90;99.90;;;;;;4915018;29;20286;-79
2022/06/30 02:56:20;;;;;;;14.57;13.53;;;16.90;99.90;;;;;;4917044;29;20255;-79
2022/06/30 02:58:56;;;;;;;14.90;13.80;;;17.00;99.90;;;;;;4918369;29;20747;-80
2022/06/30 03:01:23;;;;;;;14.67;13.53;;;17.00;99.90;;;;;;4886933;29;20206;-81
2022/06/30 03:03:50;;;;;;;14.53;13.53;;;17.00;99.90;;;;;;4914983;29;20195;-77
2022/06/30 03:06:21;;;;;;;14.97;13.97;;;17.00;99.90;;;;;;4918207;29;20802;-78
2022/06/30 03:08:48;;;;;;;14.73;13.63;;;17.00;99.90;;;;;;4901690;29;20209;-78
2022/06/30 03:11:19;;;;;;;14.43;13.17;;;16.90;99.90;;;;;;4918552;29;20274;-79
2022/06/30 03:13:47;;;;;;;14.60;13.50;;;16.90;99.90;;;;;;4900864;29;20322;-78
2022/06/30 03:16:17;;;;;;;14.60;13.60;;;16.90;99.90;;;;;;4918903;29;20720;-80
2022/06/30 03:18:44;;;;;;;14.83;13.70;;;16.80;99.90;;;;;;4914783;29;20210;-79
2022/06/30 03:21:12;;;;;;;13.87;12.70;;;16.80;99.90;;;;;;4913062;29;20236;-77
2022/06/30 03:23:40;;;;;;;14.37;13.37;;;16.70;99.90;;;;;;4906572;29;20291;-79
2022/06/30 03:26:07;;;;;;;14.77;13.70;;;16.70;99.90;;;;;;4918260;29;20266;-79
2022/06/30 03:28:34;;;;;;;14.83;13.83;;;16.60;99.90;;;;;;4901276;29;20656;-79
2022/06/30 03:31:01;;;;;;;14.87;13.77;;;16.60;99.90;;;;;;4917075;29;20231;-78
2022/06/30 03:33:27;;;;;;;14.83;13.77;;;16.60;99.90;;;;;;4917831;29;20234;-78
2022/06/30 03:35:54;;;;;;;15.33;14.30;;;16.50;99.90;;;;;;4918346;29;20206;-78
2022/06/30 03:38:22;;;;;;;15.00;13.87;;;16.50;99.90;;;;;;4918308;29;20326;-79
2022/06/30 03:40:50;;;;;;;14.83;13.83;;;16.50;99.90;;;;;;4912547;29;20278;-79
2022/06/30 03:43:17;;;;;;;15.50;14.27;;;16.50;99.90;;;;;;4896609;29;20227;-79
2022/06/30 03:45:46;;;;;;;14.77;13.83;;;16.50;99.90;;;;;;4911740;29;20208;-79
2022/06/30 03:48:12;;;;;;;15.60;14.40;;;16.50;99.90;;;;;;4916923;29;20203;-80
2022/06/30 03:50:39;;;;;;;15.03;13.90;;;16.60;99.90;;;;;;4901170;29;20212;-78
2022/06/30 03:53:06;;;;;;;15.30;14.20;;;16.50;99.90;;;;;;4950871;23;20257;-80
2022/06/30 03:55:33;;;;;;;15.77;14.57;;;16.50;99.90;;;;;;4912336;29;20290;-82
2022/06/30 03:58:02;;;;;;;15.10;14.10;;;16.60;99.90;;;;;;4929471;29;20204;-81
2022/06/30 04:00:28;;;;;;;14.50;13.53;;;16.60;99.90;;;;;;4934869;29;20668;-81
2022/06/30 04:02:55;;;;;;;14.43;13.53;;;16.70;99.90;;;;;;4908059;29;20382;-80
2022/06/30 04:05:22;;;;;;;15.53;14.43;;;16.70;99.90;;;;;;4902237;29;20601;-81
2022/06/30 04:07:49;;;;;;;14.77;13.67;;;16.70;99.90;;;;;;4902613;29;20266;-82
2022/06/30 04:10:17;;;;;;;15.60;14.60;;;16.70;99.90;;;;;;4902008;29;20200;-82
2022/06/30 04:12:44;;;;;;;15.40;14.40;;;16.80;99.90;;;;;;4901571;29;20672;-81
2022/06/30 04:15:12;;;;;;;14.43;13.43;;;16.80;99.90;;;;;;4901464;29;20648;-80
2022/06/30 04:17:39;;;;;;;15.07;14.07;;;16.80;99.90;;;;;;4918547;29;20255;-82
2022/06/30 04:20:15;;;;;;;14.53;13.60;;;16.90;99.90;;;;;;4902063;29;20203;-81
2022/06/30 04:22:44;;;;;;;14.73;13.63;;;16.90;99.90;;;;;;4920149;29;20696;-82
2022/06/30 04:25:11;;;;;;;14.60;13.50;;;17.00;99.90;;;;;;4894502;29;20200;-81
2022/06/30 04:27:42;;;;;;;14.60;13.60;;;17.10;99.90;;;;;;4901312;29;20280;-80
2022/06/30 04:30:10;;;;;;;14.47;13.47;;;17.10;99.90;;;;;;4919119;29;20205;-83
2022/06/30 04:32:37;;;;;;;15.03;13.80;;;17.20;99.90;;;;;;4904200;29;20232;-82
2022/06/30 04:35:06;;;;;;;14.70;13.80;;;17.30;99.90;;;;;;4901734;29;20265;-82
2022/06/30 04:37:33;;;;;;;14.47;13.47;;;17.40;99.90;;;;;;4903719;29;20302;-81
2022/06/30 04:42:44;;;;;;;13.90;13.00;;;17.70;99.90;;;;;;4921908;29;20730;-81
2022/06/30 04:45:11;;;;;;;14.20;13.20;;;17.90;99.90;;;;;;4921961;29;20247;-82
2022/06/30 04:47:40;;;;;;;14.60;13.60;;;18.10;99.90;;;;;;4904446;29;20206;-82
2022/06/30 04:50:07;;;;;;;8.90;8.20;;;18.30;99.90;;;;;;4913855;29;20228;-82
2022/06/30 04:52:35;;;;;;;7.50;6.80;;;18.40;99.90;;;;;;4922479;29;20234;-82
2022/06/30 04:55:02;;;;;;;7.30;6.60;;;19.10;99.90;;;;;;4903112;29;20220;-81
2022/06/30 04:57:28;;;;;;;6.73;6.00;;;19.50;99.90;;;;;;4903584;29;20199;-82
2022/06/30 04:59:55;;;;;;;8.37;7.63;;;19.70;99.90;;;;;;4922906;29;20205;-82
2022/06/30 05:02:22;;;;;;;6.50;5.90;;;19.70;99.90;;;;;;4923137;29;20251;-82
2022/06/30 05:04:50;;;;;;;6.87;6.17;;;19.70;99.90;;;;;;4923279;29;20205;-82
2022/06/30 05:07:17;;;;;;;6.87;6.17;;;19.70;99.90;;;;;;4905217;29;20630;-82
2022/06/30 05:09:45;;;;;;;6.50;5.90;;;19.80;99.90;;;;;;4905901;29;20647;-81
2022/06/30 05:12:12;;;;;;;13.27;12.47;;;19.90;99.90;;;;;;4915123;29;20223;-82
2022/06/30 05:14:39;;;;;;;14.63;13.63;;;19.90;99.90;;;;;;4922482;29;20582;-82
2022/06/30 05:17:06;;;;;;;12.40;11.60;;;20.10;99.90;;;;;;4923321;29;20206;-81
2022/06/30 05:19:33;;;;;;;6.33;5.57;;;20.10;99.90;;;;;;4909463;29;20222;-82
2022/06/30 05:22:02;;;;;;;6.50;5.90;;;20.30;99.90;;;;;;4922478;29;20263;-80
2022/06/30 05:27:13;;;;;;;6.30;5.70;;;20.60;99.90;;;;;;4903131;29;20231;-82
2022/06/30 05:29:40;;;;;;;6.53;5.93;;;20.60;99.90;;;;;;4902373;29;20237;-81
2022/06/30 05:32:08;;;;;;;12.50;11.70;;;20.70;99.90;;;;;;4904847;29;20303;-81
2022/06/30 05:34:35;;;;;;;6.03;5.53;;;20.70;99.90;;;;;;4904678;29;20276;-82
2022/06/30 05:37:05;;;;;;;10.90;10.00;;;20.80;99.90;;;;;;4922308;29;20259;-82
2022/06/30 05:39:32;;;;;;;11.63;10.83;;;21.00;99.90;;;;;;4922632;29;20188;-81
2022/06/30 05:41:59;;;;;;;10.13;9.33;;;21.30;99.90;;;;;;4905492;29;20679;-81
2022/06/30 05:44:26;;;;;;;8.57;7.87;;;21.70;99.90;;;;;;4906052;29;20199;-82
2022/06/30 05:46:54;;;;;;;8.90;6.63;;;22.30;99.90;;;;;;4922754;29;20264;-82
2022/06/30 05:49:21;;;;;;;9.40;8.60;;;23.10;99.90;;;;;;4902835;29;20210;-82
2022/06/30 05:51:48;;;;;;;11.40;10.57;;;23.80;99.90;;;;;;4904529;29;20204;-82
2022/06/30 05:54:16;;;;;;;11.63;10.63;;;24.40;99.90;;;;;;4906080;29;20196;-83
2022/06/30 05:56:43;;;;;;;11.50;10.70;;;24.80;99.90;;;;;;4923720;29;20204;-83
2022/06/30 05:59:10;;;;;;;7.83;5.67;;;25.10;99.90;;;;;;4922124;29;20272;-82
2022/06/30 06:01:37;;;;;;;12.17;11.37;;;25.70;99.90;;;;;;4922092;29;20713;-84
2022/06/30 06:04:05;;;;;;;11.17;10.30;;;26.00;99.90;;;;;;4921730;29;20224;-84
2022/06/30 06:06:32;;;;;;;9.77;8.97;;;26.40;99.90;;;;;;4915892;29;20252;-82
2022/06/30 06:08:58;;;;;;;7.73;6.83;;;26.80;99.90;;;;;;4902636;29;20668;-82
2022/06/30 06:11:27;;;;;;;11.33;10.60;;;27.00;99.90;;;;;;4920752;29;20196;-84
2022/06/30 06:13:53;;;;;;;7.50;5.37;;;26.90;99.90;;;;;;4919831;29;20239;-83
2022/06/30 06:16:20;;;;;;;11.30;10.40;;;27.10;99.90;;;;;;4903290;29;20227;-83
2022/06/30 06:18:47;;;;;;;11.50;10.70;;;27.30;99.90;;;;;;4902347;29;20657;-82
2022/06/30 06:21:14;;;;;;;12.43;11.53;;;27.30;99.90;;;;;;4919938;29;20196;-83
2022/06/30 06:23:41;;;;;;;12.70;11.80;;;27.50;99.90;;;;;;4901799;29;20239;-84
2022/06/30 06:26:07;;;;;;;11.57;10.67;;;27.70;99.90;;;;;;4901852;29;20235;-84
2022/06/30 06:31:20;;;;;;;12.17;11.37;;;27.80;99.90;;;;;;4912489;29;20191;-83
2022/06/30 06:33:48;;;;;;;12.50;11.33;;;27.80;99.90;;;;;;4899049;29;20271;-83
2022/06/30 06:36:15;;;;;;;12.73;11.37;;;27.80;99.90;;;;;;4919361;29;20306;-84
2022/06/30 06:38:42;;;;;;;10.43;9.70;;;27.60;99.90;;;;;;4901242;29;20208;-83
2022/06/30 06:41:09;;;;;;;10.23;9.43;;;27.70;99.90;;;;;;4911188;29;20665;-85
2022/06/30 06:43:37;;;;;;;11.43;10.63;;;28.10;99.90;;;;;;4901056;29;20224;-84
2022/06/30 06:46:04;;;;;;;11.35;10.50;;;28.40;99.90;;;;;;4917925;29;20447;-84
2022/06/30 06:48:31;;;;;;;12.05;11.00;;;28.50;99.90;;;;;;4917025;29;20434;-82
2022/06/30 06:50:58;;;;;;;11.17;10.37;;;28.70;99.90;;;;;;4918187;29;20629;-83
2022/06/30 06:53:24;;;;;;;11.57;10.77;;;28.60;99.90;;;;;;4900919;29;20236;-83
2022/06/30 06:55:51;;;;;;;10.77;10.07;;;28.80;99.90;;;;;;4911381;29;20228;-84
2022/06/30 06:58:18;;;;;;;10.57;9.67;;;29.00;99.90;;;;;;4917828;29;20819;-82
2022/06/30 07:00:46;;;;;;;11.23;10.40;;;29.00;99.90;;;;;;4916465;29;20275;-84
2022/06/30 07:03:13;;;;;;;10.53;9.77;;;29.20;99.90;;;;;;4917430;29;20212;-85
2022/06/30 07:05:41;;;;;;;10.07;9.27;;;29.40;99.90;;;;;;4901473;29;20204;-83
2022/06/30 07:08:07;;;;;;;9.53;8.80;;;29.50;99.90;;;;;;4914313;29;20330;-84
2022/06/30 07:10:34;;;;;;;11.20;10.30;;;29.80;99.90;;;;;;4900826;29;20554;-83
2022/06/30 07:13:01;;;;;;;9.40;8.60;;;29.80;99.90;;;;;;4900257;29;20235;-84
2022/06/30 07:15:28;;;;;;;11.73;10.77;;;29.80;99.90;;;;;;4900450;29;20570;-85
2022/06/30 07:17:56;;;;;;;9.37;8.40;;;30.00;99.90;;;;;;4900085;29;20208;-84
2022/06/30 07:20:23;;;;;;;11.60;10.80;;;30.10;99.90;;;;;;4900701;29;20665;-83
2022/06/30 07:22:50;;;;;;;9.47;8.73;;;30.20;99.90;;;;;;4917828;29;20220;-83
2022/06/30 07:25:17;;;;;;;10.80;9.87;;;29.90;99.90;;;;;;4917174;29;20695;-83
2022/06/30 07:27:44;;;;;;;9.83;8.53;;;29.90;99.90;;;;;;4917521;29;20203;-83
2022/06/30 07:30:12;;;;;;;10.20;9.40;;;30.10;99.90;;;;;;4912859;29;20200;-84
2022/06/30 07:32:39;;;;;;;10.40;9.50;;;30.10;99.90;;;;;;4917242;29;20223;-84
2022/06/30 07:35:08;;;;;;;8.83;8.03;;;30.30;99.90;;;;;;4899707;29;20267;-83
2022/06/30 07:37:38;;;;;;;8.83;8.20;;;30.60;99.90;;;;;;4900609;29;20263;-84
2022/06/30 07:40:06;;;;;;;9.70;8.90;;;30.70;99.90;;;;;;4899066;29;20979;-83
2022/06/30 07:42:33;;;;;;;11.43;10.53;;;30.80;99.90;;;;;;4896631;29;20223;-83
2022/06/30 07:44:59;;;;;;;11.47;10.67;;;30.90;99.90;;;;;;4894893;29;20204;-83
2022/06/30 07:47:26;;;;;;;11.13;10.23;;;30.80;99.90;;;;;;4905256;29;20204;-84
2022/06/30 07:49:53;;;;;;;11.07;10.27;;;30.60;99.90;;;;;;4900714;29;20204;-84
2022/06/30 07:52:21;;;;;;;11.97;11.07;;;30.70;99.90;;;;;;4916948;29;20231;-84
2022/06/30 07:54:50;;;;;;;9.93;9.00;;;30.60;99.90;;;;;;4916843;29;20200;-84
2022/06/30 07:57:17;;;;;;;10.90;10.00;;;30.50;99.90;;;;;;4917608;29;20228;-84
2022/06/30 07:59:44;;;;;;;11.33;10.60;;;30.60;99.90;;;;;;4916984;29;20208;-84
2022/06/30 08:02:12;;;;;;;10.13;9.43;;;30.50;99.90;;;;;;4920386;29;20267;-84
2022/06/30 08:04:39;;;;;;;9.90;9.00;;;30.40;99.90;;;;;;4897374;29;20236;-83
2022/06/30 08:07:05;;;;;;;9.27;8.47;;;30.60;99.90;;;;;;4917099;29;20188;-84
2022/06/30 08:09:34;;;;;;;9.73;8.90;;;30.60;99.90;;;;;;4900420;29;20208;-84
2022/06/30 08:12:01;;;;;;;8.93;8.10;;;30.50;99.90;;;;;;4904805;29;20244;-84
2022/06/30 08:14:28;;;;;;;8.53;7.83;;;30.70;99.90;;;;;;4903618;29;20223;-83
2022/06/30 08:16:55;;;;;;;9.33;8.63;;;30.90;99.90;;;;;;4903832;29;20232;-84
2022/06/30 08:19:22;;;;;;;12.03;11.03;;;31.00;99.90;;;;;;4920667;29;20196;-84
2022/06/30 08:21:49;;;;;;;12.07;11.17;;;31.00;99.90;;;;;;4903223;29;20218;-83
2022/06/30 08:24:16;;;;;;;11.87;10.77;;;30.80;99.90;;;;;;4903714;29;20642;-83
2022/06/30 08:26:44;;;;;;;9.00;8.30;;;31.00;99.90;;;;;;4904268;29;20656;-84
2022/06/30 08:29:13;;;;;;;8.90;8.20;;;31.10;99.90;;;;;;4903479;29;20203;-84
2022/06/30 08:31:39;;;;;;;12.17;4.97;;;30.80;99.90;;;;;;4920729;29;20255;-83
2022/06/30 08:34:06;;;;;;;8.23;7.43;;;30.90;99.90;;;;;;4903934;29;20251;-82
2022/06/30 08:36:33;;;;;;;9.60;8.60;;;30.80;99.90;;;;;;4921968;29;20212;-83
2022/06/30 08:39:00;;;;;;;8.73;8.03;;;31.10;99.90;;;;;;4920066;29;20203;-84
2022/06/30 08:44:15;;;;;;;9.60;8.70;;;31.40;99.90;;;;;;4893380;29;20251;-84
2022/06/30 08:46:42;;;;;;;9.53;7.93;;;31.80;99.90;;;;;;4902075;29;20239;-84
2022/06/30 08:49:09;;;;;;;7.77;6.97;;;31.80;99.90;;;;;;4917357;29;20257;-85
2022/06/30 08:51:36;;;;;;;7.33;6.73;;;32.10;99.90;;;;;;4902523;29;20255;-80
2022/06/30 08:54:04;;;;;;;9.17;5.37;;;32.40;99.90;;;;;;4901621;29;20319;-80
2022/06/30 08:56:34;;;;;;;7.28;5.30;;;32.30;99.90;;;;;;4921511;29;20223;-81
2022/06/30 08:59:02;;;;;;;7.50;6.10;;;32.10;99.90;;;;;;4885674;29;20810;-81
2022/06/30 09:01:31;;;;;;;6.00;5.40;;;32.40;99.90;;;;;;4886378;29;20205;-80
2022/06/30 09:03:58;;;;;;;6.13;5.53;;;32.50;99.90;;;;;;4902361;29;20231;-80
2022/06/30 09:06:25;;;;;;;6.90;6.30;;;32.50;99.90;;;;;;4880302;29;20257;-80
2022/06/30 09:08:52;;;;;;;8.37;7.10;;;32.50;99.90;;;;;;4885821;29;20212;-80
2022/06/30 09:11:19;;;;;;;7.70;7.20;;;32.80;99.90;;;;;;4901927;29;20200;-80
2022/06/30 09:13:48;;;;;;;6.85;6.20;;;32.90;99.90;;;;;;4885511;29;20224;-80
2022/06/30 09:16:17;;;;;;;6.20;5.25;;;32.80;99.90;;;;;;4902636;29;20281;-80
2022/06/30 09:18:46;;;;;;;8.80;8.00;;;32.90;99.90;;;;;;4890374;29;20267;-81
2022/06/30 09:21:17;;;;;;;9.35;8.30;;;33.10;99.90;;;;;;4903043;29;20288;-81
2022/06/30 09:23:45;;;;;;;8.88;8.18;;;32.80;99.90;;;;;;4883028;29;20268;-84
2022/06/30 09:26:18;;;;;;;10.45;9.57;;;32.60;99.90;;;;;;4893815;29;20210;-83
2022/06/30 09:28:46;;;;;;;10.55;9.70;;;32.30;99.90;;;;;;4881130;29;20213;-83
2022/06/30 09:31:15;;;;;;;10.52;9.80;;;32.30;99.90;;;;;;4888728;29;20312;-82
2022/06/30 09:33:45;;;;;;;10.73;9.82;;;32.50;99.90;;;;;;4886182;29;20280;-83
2022/06/30 09:36:26;;;;;;;12.05;11.10;;;32.70;99.90;;;;;;4897014;29;20232;-82
2022/06/30 09:39:04;;;;;;;10.98;10.10;;;32.80;99.90;;;;;;4903624;29;20256;-82
2022/06/30 09:41:33;;;;;;;11.67;10.57;;;32.90;99.90;;;;;;4903331;29;20557;-83
2022/06/30 09:43:59;;;;;;;10.83;10.13;;;32.80;99.90;;;;;;4886456;29;20228;-83
2022/06/30 09:46:27;;;;;;;11.30;10.50;;;32.30;99.90;;;;;;4903702;29;20193;-83
2022/06/30 09:48:54;;;;;;;8.70;7.90;;;32.10;99.90;;;;;;4886805;29;20723;-83
2022/06/30 09:51:21;;;;;;;9.37;7.80;;;32.00;99.90;;;;;;4904189;29;20196;-82
2022/06/30 09:54:08;;;;;;;8.57;7.77;;;32.30;99.90;;;;;;4887394;29;20228;-84
2022/06/30 09:56:35;;;;;;;8.80;7.93;;;32.20;99.90;;;;;;4899127;29;20235;-83
2022/06/30 09:59:05;;;;;;;8.93;8.13;;;32.50;99.90;;;;;;4886125;29;20213;-83
2022/06/30 10:01:50;;;;;;;8.93;8.13;;;32.50;99.90;;;;;;4907923;29;20205;-83
2022/06/30 10:04:17;;;;;;;8.60;7.80;;;32.80;99.90;;;;;;4882540;29;20205;-83
2022/06/30 10:06:45;;;;;;;9.50;8.67;;;32.80;99.90;;;;;;4887086;29;20300;-84
2022/06/30 10:09:15;;;;;;;10.80;10.00;;;32.90;99.90;;;;;;4886634;29;20248;-83
2022/06/30 10:11:43;;;;;;;10.47;9.57;;;32.60;99.90;;;;;;4893560;29;20678;-83
2022/06/30 10:14:12;;;;;;;11.40;10.30;;;32.70;99.90;;;;;;4895898;29;20528;-83
2022/06/30 10:16:41;;;;;;;11.33;10.43;;;32.50;99.90;;;;;;4887806;29;20220;-82
2022/06/30 10:19:10;;;;;;;10.87;10.00;;;32.50;99.90;;;;;;4887886;29;20506;-82
2022/06/30 10:21:38;;;;;;;5.07;4.57;;;32.70;99.90;;;;;;4888485;29;20205;-83
2022/06/30 10:24:06;;;;;;;6.03;4.87;;;32.60;99.90;;;;;;4886452;29;20232;-83
2022/06/30 10:29:20;;;;;;;7.60;6.87;;;32.30;99.90;;;;;;4873339;29;20196;-83
2022/06/30 10:31:55;;;;;;;6.53;4.50;;;32.30;99.90;;;;;;4887400;29;20486;-82
2022/06/30 10:34:28;;;;;;;5.23;4.47;;;32.40;99.90;;;;;;4887269;29;20264;-82
2022/06/30 10:37:04;;;;;;;5.67;4.10;;;32.50;99.90;;;;;;4888587;29;20247;-83
2022/06/30 10:39:42;;;;;;;5.13;4.63;;;32.20;99.90;;;;;;4883912;29;20689;-82
2022/06/30 10:42:10;;;;;;;9.10;8.40;;;31.70;99.90;;;;;;4903603;29;20709;-83
2022/06/30 10:44:37;;;;;;;10.30;9.30;;;31.60;99.90;;;;;;4889526;29;20205;-82
2022/06/30 10:47:09;;;;;;;9.27;8.30;;;31.60;99.90;;;;;;4889169;29;20779;-82
2022/06/30 10:49:58;;;;;;;9.97;9.17;;;31.60;99.90;;;;;;4905312;29;20212;-83
2022/06/30 10:52:27;;;;;;;10.07;9.27;;;31.50;99.90;;;;;;4882305;29;20311;-82
2022/06/30 10:55:04;;;;;;;10.77;8.20;;;31.10;99.90;;;;;;4905091;29;20244;-83
2022/06/30 10:58:01;;;;;;;10.17;9.30;;;30.80;99.90;;;;;;4883232;29;20242;-82
2022/06/30 11:00:50;;;;;;;6.90;5.23;;;30.80;99.90;;;;;;4898686;29;20682;-82
2022/06/30 11:03:59;;;;;;;6.10;5.00;;;30.70;99.90;;;;;;4900072;29;20281;-81
2022/06/30 11:06:57;;;;;;;7.80;5.77;;;30.70;99.90;;;;;;4881461;29;20292;-82
2022/06/30 11:10:07;;;;;;;9.00;8.40;;;30.90;99.90;;;;;;4897550;29;20204;-82
2022/06/30 11:13:08;;;;;;;6.83;6.17;;;31.10;99.90;;;;;;4881991;29;20311;-82
2022/06/30 11:15:52;;;;;;;8.33;7.73;;;31.20;99.90;;;;;;4877595;29;20678;-82
2022/06/30 11:18:19;;;;;;;9.17;8.37;;;31.40;99.90;;;;;;4874685;29;20256;-82
2022/06/30 11:20:46;;;;;;;9.27;8.47;;;31.60;99.90;;;;;;4903304;29;20264;-82
2022/06/30 11:23:14;;;;;;;9.50;8.80;;;31.20;99.90;;;;;;4899674;29;20595;-82
2022/06/30 11:28:31;;;;;;;9.70;8.80;;;31.00;99.90;;;;;;4879926;29;20805;-81
2022/06/30 11:30:58;;;;;;;8.93;8.23;;;30.80;99.90;;;;;;4901717;29;20659;-82
2022/06/30 11:33:25;;;;;;;9.07;8.37;;;30.70;99.90;;;;;;4884948;29;20216;-81
2022/06/30 11:36:02;;;;;;;8.73;8.03;;;30.50;99.90;;;;;;4884546;29;20285;-82
2022/06/30 11:38:30;;;;;;;9.60;8.83;;;30.40;99.90;;;;;;4884874;29;20204;-82
2022/06/30 11:41:54;;;;;;;9.20;8.60;;;30.20;99.90;;;;;;4884543;29;20582;-82
2022/06/30 11:43:51;;;;;;;5.27;4.77;;;29.90;99.90;;;;;;4898568;29;20761;-81
2022/06/30 11:46:18;;;;;;;4.97;4.10;;;29.60;99.90;;;;;;4894940;29;20196;-81
2022/06/30 11:48:45;;;;;;;4.47;4.03;;;29.70;99.90;;;;;;4890180;29;20685;-81
2022/06/30 11:51:13;;;;;;;7.77;7.17;;;30.00;99.90;;;;;;4883896;29;20212;-81
2022/06/30 11:53:41;;;;;;;9.60;8.70;;;30.10;99.90;;;;;;4884174;29;20236;-81
2022/06/30 11:56:08;;;;;;;6.67;6.00;;;30.10;99.90;;;;;;4883495;29;20252;-81
2022/06/30 11:58:35;;;;;;;7.87;6.83;;;30.30;99.90;;;;;;4882006;29;20213;-82
2022/06/30 12:01:16;;;;;;;7.60;7.00;;;30.40;99.90;;;;;;4899272;29;20239;-82
2022/06/30 12:03:43;;;;;;;6.97;6.40;;;30.50;99.90;;;;;;4899373;29;20228;-78
2022/06/30 12:06:11;;;;;;;9.10;8.23;;;30.70;99.90;;;;;;4885183;29;20220;-80
2022/06/30 12:08:40;;;;;;;7.57;6.97;;;30.70;99.90;;;;;;4883219;29;20211;-82
2022/06/30 12:11:08;;;;;;;8.17;7.03;;;30.70;99.90;;;;;;4900091;29;20275;-81
2022/06/30 12:13:34;;;;;;;7.07;5.83;;;30.50;99.90;;;;;;4871838;29;20236;-82
2022/06/30 12:16:05;;;;;;;5.83;5.33;;;30.50;99.90;;;;;;4881231;29;20213;-81
2022/06/30 12:18:34;;;;;;;6.17;5.67;;;30.60;99.90;;;;;;4898395;29;20229;-81
2022/06/30 12:21:03;;;;;;;7.80;6.30;;;30.80;99.90;;;;;;4900191;29;20228;-80
2022/06/30 12:23:30;;;;;;;7.67;6.97;;;31.00;99.90;;;;;;4882620;29;20244;-83
2022/06/30 12:25:57;;;;;;;11.03;8.50;;;31.10;99.90;;;;;;4881807;29;20204;-78
2022/06/30 12:28:26;;;;;;;8.90;8.10;;;30.90;99.90;;;;;;4882018;29;20205;-79
2022/06/30 12:30:53;;;;;;;8.63;7.83;;;30.80;99.90;;;;;;4881382;29;20227;-79
2022/06/30 12:33:22;;;;;;;8.90;8.07;;;30.50;99.90;;;;;;4882038;29;20684;-77
2022/06/30 12:35:50;;;;;;;8.90;8.10;;;30.40;99.90;;;;;;4898786;29;20264;-81
2022/06/30 12:38:20;;;;;;;8.40;7.80;;;30.30;99.90;;;;;;4899939;29;20231;-76
2022/06/30 12:40:48;;;;;;;8.17;7.47;;;30.60;99.90;;;;;;4897900;29;20626;-78
2022/06/30 12:43:16;;;;;;;8.37;7.77;;;30.70;99.90;;;;;;4880696;29;20826;-85
2022/06/30 12:45:47;;;;;;;7.97;7.37;;;30.80;99.90;;;;;;4880142;29;20213;-78
2022/06/30 12:48:35;;;;;;;7.67;7.07;;;31.00;99.90;;;;;;4882532;29;20200;-81
2022/06/30 12:51:04;;;;;;;9.07;8.00;;;31.10;99.90;;;;;;4896738;29;20203;-80
2022/06/30 12:53:30;;;;;;;8.50;7.90;;;30.80;99.90;;;;;;4880282;29;20224;-80
2022/06/30 12:56:04;;;;;;;8.23;7.63;;;30.80;99.90;;;;;;4880924;29;20217;-79
2022/06/30 12:58:50;;;;;;;7.90;7.40;;;30.70;99.90;;;;;;4884649;29;20212;-80
2022/06/30 13:01:19;;;;;;;8.07;7.47;;;30.70;99.90;;;;;;4875178;29;20212;-80
2022/06/30 13:03:58;;;;;;;8.60;7.77;;;30.50;99.90;;;;;;4884077;29;20225;-83
2022/06/30 13:06:29;;;;;;;8.50;7.90;;;30.60;99.90;;;;;;4890633;29;20204;-81
2022/06/30 13:08:55;;;;;;;8.57;7.87;;;30.60;99.90;;;;;;4913438;29;20197;-82